createdAt,value
2022-11-16T00:01:15.414Z,23.45
2022-11-16T00:02:51.932Z,21.40
2022-11-16T00:04:25.280Z,26.77
2022-11-16T00:05:57.895Z,21.92
2022-11-16T00:07:31.293Z,24.33
2022-11-16T00:09:23.823Z,27.02
2022-11-16T00:10:57.351Z,22.08
2022-11-16T00:12:30.458Z,24.33
2022-11-16T00:14:04.239Z,30.05
2022-11-16T00:15:37.419Z,28.05
2022-11-16T00:17:10.682Z,24.13
2022-11-16T00:18:45.735Z,25.67
2022-11-16T00:20:18.942Z,22.95
2022-11-16T00:21:52.203Z,25.88
2022-11-16T00:23:24.619Z,22.42
2022-11-16T00:24:57.765Z,24.58
2022-11-16T00:26:30.245Z,23.33
2022-11-16T00:28:03.356Z,26.67
2022-11-16T00:29:36.678Z,26.83
2022-11-16T00:31:09.859Z,24.38
2022-11-16T00:32:43.051Z,25.92
2022-11-16T00:34:18.395Z,25.35
2022-11-16T00:35:51.752Z,26.20
2022-11-16T00:37:24.860Z,22.27
2022-11-16T00:38:58.077Z,22.95
2022-11-16T00:40:31.262Z,21.35
2022-11-16T00:42:04.691Z,20.55
2022-11-16T00:43:37.412Z,19.67
2022-11-16T00:45:11.711Z,19.63
2022-11-16T00:46:44.926Z,22.70
2022-11-16T00:48:18.920Z,21.63
2022-11-16T00:49:53.457Z,21.10
2022-11-16T00:51:27.230Z,19.30
2022-11-16T00:53:00.595Z,20.20
2022-11-16T00:54:35.208Z,19.15
2022-11-16T00:56:09.135Z,23.48
2022-11-16T00:57:48.509Z,25.27
2022-11-16T00:59:22.452Z,25.23
2022-11-16T01:01:03.928Z,23.30
2022-11-16T01:02:37.187Z,24.48
2022-11-16T01:04:10.392Z,23.45
2022-11-16T01:05:45.023Z,21.27
2022-11-16T01:07:18.421Z,24.13
2022-11-16T01:08:53.710Z,23.50
2022-11-16T01:10:30.459Z,22.90
2022-11-16T01:12:12.686Z,21.55
2022-11-16T01:13:45.456Z,22.63
2022-11-16T01:15:22.132Z,23.10
2022-11-16T01:16:55.391Z,28.13
2022-11-16T01:18:27.539Z,24.10
2022-11-16T01:20:00.841Z,26.35
2022-11-16T01:21:35.576Z,24.05
2022-11-16T01:23:08.801Z,24.40
2022-11-16T01:24:42.115Z,27.23
2022-11-16T01:26:15.610Z,28.40
2022-11-16T01:27:49.389Z,24.55
2022-11-16T01:29:33.096Z,31.80
2022-11-16T01:31:08.123Z,26.52
2022-11-16T01:32:42.983Z,24.92
2022-11-16T01:34:16.465Z,23.50
2022-11-16T01:35:49.660Z,26.95
2022-11-16T01:37:24.379Z,25.95
2022-11-16T01:38:58.255Z,24.30
2022-11-16T01:40:34.921Z,28.27
2022-11-16T01:42:07.361Z,24.92
2022-11-16T01:43:56.055Z,27.35
2022-11-16T01:45:38.795Z,25.75
2022-11-16T01:47:15.269Z,25.63
2022-11-16T01:48:51.064Z,24.92
2022-11-16T01:50:25.675Z,27.95
2022-11-16T01:52:02.410Z,26.00
2022-11-16T01:53:40.898Z,33.05
2022-11-16T01:55:14.852Z,31.15
2022-11-16T01:57:06.728Z,30.25
2022-11-16T01:58:51.282Z,35.45
2022-11-16T02:00:28.714Z,39.25
2022-11-16T02:02:16.116Z,32.30
2022-11-16T02:03:49.318Z,34.53
2022-11-16T02:05:31.856Z,37.05
2022-11-16T02:07:14.210Z,28.33
2022-11-16T02:09:20.121Z,35.70
2022-11-16T02:11:20.654Z,36.72
2022-11-16T02:13:06.387Z,29.50
2022-11-16T02:15:03.441Z,34.63
2022-11-16T02:16:44.577Z,32.83
2022-11-16T02:18:31.315Z,30.75
2022-11-16T02:20:34.759Z,26.38
2022-11-16T02:22:19.743Z,27.98
2022-11-16T02:24:36.214Z,31.33
2022-11-16T02:26:24.668Z,30.33
2022-11-16T02:28:15.507Z,28.42
2022-11-16T02:29:54.588Z,27.33
2022-11-16T02:31:33.653Z,22.48
2022-11-16T02:33:11.245Z,35.72
2022-11-16T02:34:51.637Z,30.15
2022-11-16T02:36:26.582Z,33.20
2022-11-16T02:38:03.982Z,26.88
2022-11-16T02:39:40.396Z,26.27
2022-11-16T02:41:19.109Z,25.45
2022-11-16T02:42:58.022Z,25.20
2022-11-16T02:44:35.588Z,21.45
2022-11-16T02:46:17.040Z,27.05
2022-11-16T02:47:53.711Z,31.33
2022-11-16T02:49:29.025Z,28.13
2022-11-16T02:51:03.863Z,30.85
2022-11-16T02:52:38.838Z,23.70
2022-11-16T02:54:18.089Z,28.52
2022-11-16T02:55:54.125Z,27.02
2022-11-16T02:57:42.929Z,28.48
2022-11-16T02:59:19.028Z,28.33
2022-11-16T03:01:00.834Z,27.15
2022-11-16T03:02:45.192Z,31.15
2022-11-16T03:04:24.745Z,34.00
2022-11-16T03:06:04.893Z,32.67
2022-11-16T03:07:42.544Z,32.33
2022-11-16T03:09:20.447Z,30.30
2022-11-16T03:11:14.473Z,29.52
2022-11-16T03:12:47.607Z,34.28
2022-11-16T03:14:25.100Z,28.33
2022-11-16T03:16:01.892Z,30.70
2022-11-16T03:17:41.408Z,38.78
2022-11-16T03:19:18.227Z,33.47
2022-11-16T03:20:57.302Z,28.63
2022-11-16T03:22:38.065Z,38.38
2022-11-16T03:24:11.464Z,30.08
2022-11-16T03:25:50.763Z,32.65
2022-11-16T03:27:33.311Z,32.00
2022-11-16T03:29:13.710Z,34.88
2022-11-16T03:30:53.280Z,32.58
2022-11-16T03:32:32.112Z,32.80
2022-11-16T03:34:13.611Z,121.53
2022-11-16T03:35:52.785Z,36.55
2022-11-16T03:37:26.934Z,30.00
2022-11-16T03:39:04.081Z,28.48
2022-11-16T03:40:41.514Z,103.45
2022-11-16T03:42:15.192Z,53.42
2022-11-16T03:43:50.572Z,31.45
2022-11-16T03:45:24.627Z,32.83
2022-11-16T03:46:59.764Z,34.13
2022-11-16T03:48:36.717Z,34.65
2022-11-16T03:50:16.408Z,39.35
2022-11-16T03:51:50.660Z,36.63
2022-11-16T03:53:22.964Z,41.78
2022-11-16T03:54:56.123Z,35.55
2022-11-16T03:56:31.476Z,34.03
2022-11-16T03:58:04.763Z,40.10
2022-11-16T03:59:39.111Z,34.67
2022-11-16T04:01:12.380Z,39.15
2022-11-16T04:02:45.345Z,35.78
2022-11-16T04:04:44.634Z,38.22
2022-11-16T04:06:36.993Z,41.00
2022-11-16T04:08:33.502Z,36.58
2022-11-16T04:10:25.292Z,32.72
2022-11-16T04:12:15.961Z,35.45
2022-11-16T04:14:09.247Z,33.35
2022-11-16T04:16:02.624Z,30.52
2022-11-16T04:17:55.689Z,30.90
2022-11-16T04:19:46.243Z,30.83
2022-11-16T04:21:42.005Z,29.10
2022-11-16T04:23:34.568Z,30.85
2022-11-16T04:25:13.651Z,26.48
2022-11-16T04:27:08.019Z,31.98
2022-11-16T04:28:40.820Z,25.20
2022-11-16T04:30:14.815Z,27.10
2022-11-16T04:32:05.375Z,39.20
2022-11-16T04:33:53.088Z,31.10
2022-11-16T04:35:43.559Z,30.95
2022-11-16T04:37:37.472Z,30.48
2022-11-16T04:39:12.253Z,29.15
2022-11-16T04:40:44.879Z,31.40
2022-11-16T04:42:22.434Z,35.72
2022-11-16T04:43:57.780Z,28.58
2022-11-16T04:45:48.895Z,31.55
2022-11-16T04:47:24.742Z,30.45
2022-11-16T04:48:58.116Z,26.75
2022-11-16T04:50:31.464Z,27.70
2022-11-16T04:52:06.474Z,36.60
2022-11-16T04:53:41.637Z,49.25
2022-11-16T04:55:23.095Z,37.45
2022-11-16T04:56:57.402Z,30.52
2022-11-16T04:58:31.294Z,36.50
2022-11-16T05:00:05.922Z,33.28
2022-11-16T05:01:58.510Z,35.78
2022-11-16T05:03:31.946Z,42.42
2022-11-16T05:05:05.476Z,48.60
2022-11-16T05:06:39.281Z,62.05
2022-11-16T05:08:12.535Z,55.33
2022-11-16T05:09:49.236Z,52.75
2022-11-16T05:11:22.987Z,49.78
2022-11-16T05:12:56.550Z,45.40
2022-11-16T05:14:29.715Z,43.60
2022-11-16T05:16:02.932Z,48.60
2022-11-16T05:17:36.491Z,61.22
2022-11-16T05:19:30.324Z,46.05
2022-11-16T05:21:06.566Z,38.97
2022-11-16T05:22:42.553Z,55.53
2022-11-16T05:24:33.229Z,57.90
2022-11-16T05:26:09.954Z,55.55
2022-11-16T05:27:44.197Z,50.00
2022-11-16T05:29:17.362Z,42.45
2022-11-16T05:30:50.748Z,45.10
2022-11-16T05:32:29.328Z,39.67
2022-11-16T05:34:06.031Z,35.95
2022-11-16T05:35:39.470Z,34.78
2022-11-16T05:37:13.813Z,32.63
2022-11-16T05:38:46.916Z,34.28
2022-11-16T05:40:20.722Z,36.08
2022-11-16T05:42:01.035Z,43.28
2022-11-16T05:43:34.377Z,45.78
2022-11-16T05:45:27.824Z,72.47
2022-11-16T05:47:02.324Z,48.78
2022-11-16T05:48:35.752Z,66.75
2022-11-16T05:50:11.412Z,51.28
2022-11-16T05:51:47.439Z,49.65
2022-11-16T05:53:22.762Z,44.45
2022-11-16T05:54:55.912Z,37.35
2022-11-16T05:56:29.601Z,43.70
2022-11-16T05:58:04.239Z,41.00
2022-11-16T05:59:37.540Z,37.60
2022-11-16T06:01:11.508Z,47.08
2022-11-16T06:02:44.916Z,47.83
2022-11-16T06:04:26.552Z,41.38
2022-11-16T06:05:59.769Z,43.17
2022-11-16T06:07:34.810Z,37.35
2022-11-16T06:09:09.849Z,41.78
2022-11-16T06:10:43.972Z,38.58
2022-11-16T06:12:17.510Z,44.75
2022-11-16T06:13:51.146Z,34.83
2022-11-16T06:15:24.586Z,40.92
2022-11-16T06:16:57.998Z,40.78
2022-11-16T06:18:30.375Z,37.42
2022-11-16T06:20:04.675Z,36.50
2022-11-16T06:21:38.036Z,43.05
2022-11-16T06:23:14.219Z,39.58
2022-11-16T06:24:47.423Z,40.95
2022-11-16T06:26:20.549Z,31.70
2022-11-16T06:27:54.309Z,37.15
2022-11-16T06:29:29.075Z,33.65
2022-11-16T06:31:02.623Z,35.85
2022-11-16T06:32:40.089Z,39.05
2022-11-16T06:34:14.201Z,38.25
2022-11-16T06:35:47.495Z,40.33
2022-11-16T06:37:25.296Z,41.55
2022-11-16T06:39:00.951Z,39.08
2022-11-16T06:40:36.208Z,42.00
2022-11-16T06:42:09.776Z,40.15
2022-11-16T06:43:43.030Z,44.00
2022-11-16T06:45:18.212Z,42.75
2022-11-16T06:46:56.720Z,40.60
2022-11-16T06:48:33.794Z,38.58
2022-11-16T06:50:10.292Z,37.90
2022-11-16T06:51:44.277Z,47.00
2022-11-16T06:55:10.352Z,38.97
2022-11-16T06:56:44.173Z,43.00
2022-11-16T06:58:17.528Z,40.88
2022-11-16T06:59:51.766Z,43.38
2022-11-16T07:01:26.508Z,38.03
2022-11-16T07:03:05.625Z,46.40
2022-11-16T07:04:38.758Z,41.88
2022-11-16T07:06:14.219Z,40.40
2022-11-16T07:07:55.026Z,42.05
2022-11-16T07:09:28.860Z,38.33
2022-11-16T07:11:06.409Z,54.10
2022-11-16T07:12:40.281Z,39.10
2022-11-16T07:14:14.178Z,42.05
2022-11-16T07:15:48.248Z,49.05
2022-11-16T07:17:22.814Z,39.47
2022-11-16T07:18:59.088Z,37.10
2022-11-16T07:20:35.498Z,43.38
2022-11-16T07:22:09.285Z,39.67
2022-11-16T07:23:42.704Z,42.47
2022-11-16T07:25:18.031Z,41.10
2022-11-16T07:26:51.277Z,44.03
2022-11-16T07:28:28.723Z,54.28
2022-11-16T07:30:03.703Z,43.33
2022-11-16T07:31:52.796Z,47.08
2022-11-16T07:34:02.781Z,41.92
2022-11-16T07:35:54.601Z,39.80
2022-11-16T07:37:27.831Z,47.28
2022-11-16T07:39:02.048Z,47.75
2022-11-16T07:40:35.560Z,46.42
2022-11-16T07:42:11.815Z,53.50
2022-11-16T07:44:10.875Z,48.05
2022-11-16T07:45:47.256Z,50.60
2022-11-16T07:47:21.775Z,53.22
2022-11-16T07:48:55.421Z,53.22
2022-11-16T07:50:48.652Z,46.80
2022-11-16T07:52:23.274Z,47.80
2022-11-16T07:54:03.244Z,63.50
2022-11-16T07:55:36.486Z,61.55
2022-11-16T07:57:10.589Z,49.00
2022-11-16T07:58:46.689Z,53.20
2022-11-16T08:00:20.082Z,56.50
2022-11-16T08:02:02.453Z,52.90
2022-11-16T08:03:37.024Z,50.72
2022-11-16T08:05:11.749Z,61.47
2022-11-16T08:06:47.923Z,57.42
2022-11-16T08:08:21.281Z,59.67
2022-11-16T08:09:55.893Z,58.17
2022-11-16T08:11:29.939Z,56.03
2022-11-16T08:13:03.297Z,61.33
2022-11-16T08:14:36.638Z,63.00
2022-11-16T08:16:13.148Z,61.53
2022-11-16T08:17:46.330Z,58.92
2022-11-16T08:19:19.906Z,56.92
2022-11-16T08:20:53.524Z,60.63
2022-11-16T08:22:29.763Z,66.60
2022-11-16T08:24:03.034Z,49.53
2022-11-16T08:25:37.378Z,54.63
2022-11-16T08:27:10.697Z,61.20
2022-11-16T08:28:45.917Z,60.15
2022-11-16T08:30:19.179Z,58.42
2022-11-16T08:31:52.357Z,63.47
2022-11-16T08:33:27.574Z,60.88
2022-11-16T08:35:00.963Z,63.55
2022-11-16T08:36:34.450Z,54.88
2022-11-16T08:38:09.954Z,56.50
2022-11-16T08:39:43.301Z,73.93
2022-11-16T08:41:17.525Z,49.72
2022-11-16T08:42:52.602Z,56.83
2022-11-16T08:44:25.807Z,53.60
2022-11-16T08:46:01.705Z,50.60
2022-11-16T08:47:35.746Z,46.30
2022-11-16T08:49:10.299Z,54.00
2022-11-16T08:51:15.371Z,46.45
2022-11-16T08:52:36.934Z,45.63
2022-11-16T08:54:12.944Z,43.75
2022-11-16T08:55:47.586Z,48.33
2022-11-16T08:57:20.714Z,52.90
2022-11-16T08:58:59.660Z,46.80
2022-11-16T09:00:34.987Z,48.38
2022-11-16T09:02:08.234Z,44.47
2022-11-16T09:03:42.323Z,43.60
2022-11-16T09:05:16.296Z,40.65
2022-11-16T09:06:49.486Z,39.35
2022-11-16T09:08:22.752Z,44.97
2022-11-16T09:09:57.291Z,41.17
2022-11-16T09:11:30.710Z,43.03
2022-11-16T09:13:03.960Z,41.08
2022-11-16T09:14:37.111Z,48.85
2022-11-16T09:16:10.499Z,43.22
2022-11-16T09:17:43.736Z,42.10
2022-11-16T09:19:17.586Z,39.17
2022-11-16T09:20:50.771Z,43.20
2022-11-16T09:22:23.937Z,46.72
2022-11-16T09:23:58.551Z,45.85
2022-11-16T09:25:33.104Z,36.95
2022-11-16T09:27:06.814Z,44.05
2022-11-16T09:28:39.921Z,40.35
2022-11-16T09:30:13.804Z,43.75
2022-11-16T09:31:46.960Z,39.08
2022-11-16T09:33:20.125Z,41.63
2022-11-16T09:34:53.813Z,42.17
2022-11-16T09:36:27.930Z,46.90
2022-11-16T09:38:01.072Z,41.53
2022-11-16T09:41:56.021Z,42.65
2022-11-16T09:43:45.826Z,50.90
2022-11-16T09:45:25.987Z,42.60
2022-11-16T09:47:01.204Z,40.97
2022-11-16T09:48:37.108Z,46.35
2022-11-16T09:54:28.428Z,41.97
2022-11-16T09:56:05.405Z,39.28
2022-11-16T09:57:40.112Z,34.83
2022-11-16T09:59:22.879Z,39.97
2022-11-16T10:01:01.369Z,33.80
2022-11-16T10:02:43.121Z,36.60
2022-11-16T10:04:21.888Z,38.40
2022-11-16T10:06:02.806Z,37.00
2022-11-16T10:07:43.359Z,29.75
2022-11-16T10:09:17.003Z,35.58
2022-11-16T10:10:59.892Z,28.38
2022-11-16T10:12:40.193Z,32.47
2022-11-16T10:14:46.295Z,34.33
2022-11-16T10:16:31.300Z,38.38
2022-11-16T10:18:42.376Z,36.75
2022-11-16T10:20:35.034Z,45.22
2022-11-16T10:22:20.753Z,41.38
2022-11-16T10:24:24.481Z,34.45
2022-11-16T10:26:04.640Z,35.95
2022-11-16T10:27:53.083Z,33.40
2022-11-16T10:29:38.608Z,35.92
2022-11-16T10:31:22.790Z,34.80
2022-11-16T10:33:04.549Z,32.95
2022-11-16T10:34:49.734Z,34.03
2022-11-16T10:36:27.561Z,39.83
2022-11-16T10:38:03.991Z,37.55
2022-11-16T10:39:41.105Z,35.35
2022-11-16T10:41:20.246Z,50.13
2022-11-16T10:43:01.726Z,40.88
2022-11-16T10:44:39.557Z,44.65
2022-11-16T10:46:21.352Z,35.97
2022-11-16T10:48:03.069Z,36.92
2022-11-16T10:49:41.788Z,38.13
2022-11-16T10:51:15.055Z,24.83
2022-11-16T10:52:48.214Z,29.55
2022-11-16T10:54:21.417Z,37.55
2022-11-16T10:56:11.555Z,27.77
2022-11-16T10:57:59.974Z,21.75
2022-11-16T10:59:42.482Z,21.85
2022-11-16T11:01:29.470Z,24.88
2022-11-16T11:03:04.300Z,23.05
2022-11-16T11:04:39.152Z,27.40
2022-11-16T11:06:13.930Z,22.27
2022-11-16T11:07:55.370Z,16.83
2022-11-16T11:09:33.399Z,14.57
2022-11-16T11:11:39.516Z,14.23
2022-11-16T11:13:26.430Z,17.90
2022-11-16T11:15:02.151Z,13.52
2022-11-16T11:16:35.469Z,20.55
2022-11-16T11:18:19.139Z,15.30
2022-11-16T11:19:58.890Z,19.17
2022-11-16T11:21:32.148Z,18.95
2022-11-16T11:23:13.368Z,21.08
2022-11-16T11:24:49.632Z,14.82
2022-11-16T11:26:36.148Z,17.92
2022-11-16T11:28:20.230Z,13.38
2022-11-16T11:29:55.689Z,20.35
2022-11-16T11:31:35.539Z,25.13
2022-11-16T11:33:13.465Z,24.38
2022-11-16T11:34:49.934Z,19.88
2022-11-16T11:36:25.956Z,20.17
2022-11-16T11:38:07.395Z,21.80
2022-11-16T11:41:35.803Z,22.52
2022-11-16T11:43:23.812Z,20.67
2022-11-16T11:44:59.769Z,18.38
2022-11-16T11:47:11.059Z,20.08
2022-11-16T11:48:39.017Z,23.42
2022-11-16T11:50:17.332Z,18.13
2022-11-16T11:51:52.913Z,15.65
2022-11-16T11:53:40.495Z,16.63
2022-11-16T11:55:18.009Z,23.42
2022-11-16T11:56:51.671Z,19.88
2022-11-16T11:58:30.161Z,16.95
2022-11-16T12:00:04.692Z,15.27
2022-11-16T12:02:08.857Z,23.95
2022-11-16T12:03:55.395Z,19.10
2022-11-16T12:05:45.697Z,21.75
2022-11-16T12:07:33.191Z,16.63
2022-11-16T12:09:20.930Z,17.08
2022-11-16T12:10:59.371Z,18.95
2022-11-16T12:12:46.617Z,17.83
2022-11-16T12:14:36.995Z,19.40
2022-11-16T12:16:18.741Z,21.60
2022-11-16T12:18:01.970Z,12.27
2022-11-16T12:20:07.701Z,15.80
2022-11-16T12:21:57.867Z,15.35
2022-11-16T12:23:58.932Z,16.88
2022-11-16T12:25:39.548Z,17.25
2022-11-16T12:27:27.070Z,15.45
2022-11-16T12:29:14.029Z,12.25
2022-11-16T12:31:02.432Z,17.80
2022-11-16T12:33:00.953Z,15.50
2022-11-16T12:34:52.402Z,10.48
2022-11-16T12:36:38.567Z,12.20
2022-11-16T12:38:28.054Z,8.30
2022-11-16T12:40:29.324Z,14.43
2022-11-16T12:42:32.893Z,15.57
2022-11-16T12:44:10.452Z,16.85
2022-11-16T12:45:53.873Z,14.30
2022-11-16T12:47:39.610Z,11.40
2022-11-16T12:49:44.759Z,8.85
2022-11-16T12:51:37.029Z,7.20
2022-11-16T12:53:26.479Z,12.57
2022-11-16T12:55:25.831Z,8.30
2022-11-16T12:57:06.604Z,9.57
2022-11-16T12:58:55.585Z,9.35
2022-11-16T13:00:33.781Z,7.07
2022-11-16T13:02:16.339Z,6.50
2022-11-16T13:03:54.169Z,9.70
2022-11-16T13:05:41.373Z,6.40
2022-11-16T13:07:22.562Z,7.78
2022-11-16T13:09:02.804Z,9.90
2022-11-16T13:10:38.957Z,7.60
2022-11-16T13:12:17.318Z,8.45
2022-11-16T13:13:54.254Z,7.78
2022-11-16T13:15:33.676Z,6.95
2022-11-16T13:17:07.758Z,6.35
2022-11-16T13:18:44.170Z,6.97
2022-11-16T13:20:31.129Z,6.95
2022-11-16T13:22:11.742Z,4.28
2022-11-16T13:23:57.070Z,4.20
2022-11-16T13:25:38.027Z,10.90
2022-11-16T13:27:19.238Z,9.90
2022-11-16T13:28:58.294Z,7.22
2022-11-16T13:30:41.936Z,7.28
2022-11-16T13:32:21.205Z,5.32
2022-11-16T13:34:01.919Z,6.38
2022-11-16T13:35:38.621Z,7.15
2022-11-16T13:37:46.315Z,5.72
2022-11-16T13:39:23.049Z,13.45
2022-11-16T13:41:29.942Z,6.43
2022-11-16T13:43:19.856Z,5.88
2022-11-16T13:44:54.372Z,8.63
2022-11-16T13:46:55.305Z,8.45
2022-11-16T13:48:34.412Z,12.25
2022-11-16T13:50:19.741Z,11.65
2022-11-16T13:51:56.507Z,7.00
2022-11-16T13:55:31.533Z,13.10
2022-11-16T13:57:20.109Z,11.48
2022-11-16T13:58:55.706Z,13.25
2022-11-16T14:00:33.449Z,21.50
2022-11-16T14:02:29.749Z,17.90
2022-11-16T14:04:35.182Z,21.30
2022-11-16T14:06:47.067Z,15.40
2022-11-16T14:08:51.010Z,14.82
2022-11-16T14:11:02.773Z,18.73
2022-11-16T14:12:58.297Z,10.30
2022-11-16T14:15:04.126Z,11.57
2022-11-16T14:16:46.582Z,15.48
2022-11-16T14:18:38.255Z,12.73
2022-11-16T14:20:19.631Z,17.60
2022-11-16T14:22:03.303Z,17.48
2022-11-16T14:23:53.104Z,16.52
2022-11-16T14:25:39.620Z,15.93
2022-11-16T14:27:30.251Z,13.65
2022-11-16T14:29:27.431Z,14.48
2022-11-16T14:31:11.327Z,16.33
2022-11-16T14:32:47.139Z,17.50
2022-11-16T14:34:24.144Z,23.13
2022-11-16T14:35:57.568Z,32.75
2022-11-16T14:37:34.618Z,27.38
2022-11-16T14:39:32.240Z,23.85
2022-11-16T14:41:08.106Z,17.25
2022-11-16T14:43:15.561Z,15.60
2022-11-16T14:44:45.732Z,19.65
2022-11-16T14:46:23.907Z,21.23
2022-11-16T14:48:02.065Z,19.25
2022-11-16T14:49:37.427Z,16.73
2022-11-16T14:51:14.926Z,24.75
2022-11-16T14:52:51.616Z,29.80
2022-11-16T14:54:33.451Z,46.55
2022-11-16T14:56:09.027Z,41.72
2022-11-16T14:57:42.240Z,39.55
2022-11-16T14:59:18.791Z,35.60
2022-11-16T15:00:56.320Z,112.78
2022-11-16T15:02:29.466Z,102.07
2022-11-16T15:04:04.909Z,47.30
2022-11-16T15:05:39.192Z,67.60
2022-11-16T15:07:14.726Z,41.55
2022-11-16T15:08:54.197Z,93.80
2022-11-16T15:10:30.379Z,53.00
2022-11-16T15:12:23.305Z,49.22
2022-11-16T15:13:56.772Z,35.08
2022-11-16T15:15:32.577Z,26.52
2022-11-16T15:17:08.419Z,43.72
2022-11-16T15:18:41.571Z,34.72
2022-11-16T15:20:20.400Z,31.33
2022-11-16T15:21:54.147Z,29.60
2022-11-16T15:23:30.955Z,21.15
2022-11-16T15:25:04.333Z,31.67
2022-11-16T15:26:40.275Z,25.83
2022-11-16T15:28:17.875Z,30.70
2022-11-16T15:29:51.087Z,28.50
2022-11-16T15:31:26.310Z,25.67
2022-11-16T15:32:59.769Z,22.38
2022-11-16T15:34:33.277Z,17.08
2022-11-16T15:36:25.567Z,23.42
2022-11-16T15:38:03.842Z,25.98
2022-11-16T15:39:37.707Z,26.27
2022-11-16T15:41:11.715Z,24.98
2022-11-16T15:42:45.348Z,23.27
2022-11-16T15:44:22.202Z,18.42
2022-11-16T15:45:56.140Z,16.35
2022-11-16T15:47:31.819Z,19.33
2022-11-16T15:49:05.416Z,26.98
2022-11-16T15:50:38.736Z,19.77
2022-11-16T15:52:12.043Z,24.58
2022-11-16T15:53:46.843Z,80.65
2022-11-16T15:55:31.873Z,22.23
2022-11-16T15:57:08.842Z,70.55
2022-11-16T15:58:43.303Z,33.45
2022-11-16T16:00:23.741Z,27.40
2022-11-16T16:01:57.405Z,21.67
2022-11-16T16:03:35.072Z,39.10
2022-11-16T16:05:23.820Z,51.35
2022-11-16T16:06:59.238Z,29.52
2022-11-16T16:08:34.836Z,40.40
2022-11-16T16:10:24.235Z,30.60
2022-11-16T16:12:16.397Z,23.20
2022-11-16T16:13:59.181Z,30.02
2022-11-16T16:15:36.182Z,44.65
2022-11-16T16:17:10.665Z,39.78
2022-11-16T16:18:45.298Z,31.23
2022-11-16T16:20:20.798Z,36.40
2022-11-16T16:21:54.146Z,50.60
2022-11-16T16:23:27.355Z,40.55
2022-11-16T16:25:01.729Z,45.72
2022-11-16T16:26:34.992Z,39.28
2022-11-16T16:28:08.168Z,37.72
2022-11-16T16:29:41.348Z,33.20
2022-11-16T16:31:15.583Z,50.03
2022-11-16T16:32:50.425Z,38.35
2022-11-16T16:34:24.985Z,36.45
2022-11-16T16:35:58.113Z,31.15
2022-11-16T16:37:32.855Z,39.60
2022-11-16T16:39:06.102Z,41.60
2022-11-16T16:40:39.312Z,45.13
2022-11-16T16:42:15.032Z,33.95
2022-11-16T16:43:48.250Z,61.85
2022-11-16T16:45:25.845Z,58.15
2022-11-16T16:46:59.191Z,67.65
2022-11-16T16:48:32.404Z,79.43
2022-11-16T16:50:07.662Z,106.78
2022-11-16T16:51:40.840Z,94.70
2022-11-16T16:53:15.346Z,63.03
2022-11-16T16:54:48.457Z,72.30
2022-11-16T16:56:21.729Z,83.50
2022-11-16T16:57:56.835Z,58.38
2022-11-16T16:59:31.077Z,45.67
2022-11-16T17:01:05.606Z,35.08
2022-11-16T17:02:38.899Z,49.75
2022-11-16T17:04:12.150Z,61.50
2022-11-16T17:05:46.709Z,150.82
2022-11-16T17:07:19.985Z,117.63
2022-11-16T17:08:53.298Z,193.45
2022-11-16T17:10:26.533Z,107.32
2022-11-16T17:11:59.710Z,105.55
2022-11-16T17:13:33.095Z,70.00
2022-11-16T17:15:07.356Z,51.00
2022-11-16T17:16:40.620Z,62.83
2022-11-16T17:18:13.775Z,42.78
2022-11-16T17:19:47.404Z,46.92
2022-11-16T17:21:22.040Z,44.75
2022-11-16T17:22:55.232Z,44.75
2022-11-16T17:24:28.428Z,48.90
2022-11-16T17:26:05.060Z,48.17
2022-11-16T17:27:38.307Z,101.88
2022-11-16T17:29:11.477Z,98.75
2022-11-16T17:30:44.623Z,93.82
2022-11-16T17:32:17.813Z,107.03
2022-11-16T17:33:51.180Z,98.70
2022-11-16T17:35:24.459Z,87.57
2022-11-16T17:36:58.996Z,107.80
2022-11-16T17:38:32.193Z,92.90
2022-11-16T17:40:06.822Z,80.88
2022-11-16T17:41:40.069Z,88.20
2022-11-16T17:43:13.220Z,83.85
2022-11-16T17:44:46.377Z,91.07
2022-11-16T17:46:21.199Z,91.18
2022-11-16T17:47:54.602Z,97.38
2022-11-16T17:49:27.817Z,96.85
2022-11-16T17:51:01.111Z,95.03
2022-11-16T17:52:35.787Z,90.43
2022-11-16T17:54:09.008Z,54.97
2022-11-16T17:55:43.695Z,57.35
2022-11-16T17:57:16.969Z,48.05
2022-11-16T17:58:52.249Z,36.40
2022-11-16T18:00:25.719Z,69.93
2022-11-16T18:01:59.017Z,46.38
2022-11-16T18:03:33.030Z,51.65
2022-11-16T18:05:07.050Z,36.63
2022-11-16T18:06:40.328Z,40.75
2022-11-16T18:08:14.916Z,34.60
2022-11-16T18:09:48.071Z,37.67
2022-11-16T18:11:23.166Z,38.47
2022-11-16T18:12:56.391Z,32.25
2022-11-16T18:14:29.636Z,36.63
2022-11-16T18:16:07.418Z,42.35
2022-11-16T18:17:40.727Z,41.67
2022-11-16T18:19:17.769Z,47.42
2022-11-16T18:20:51.103Z,48.78
2022-11-16T18:22:24.531Z,44.83
2022-11-16T18:24:00.387Z,36.55
2022-11-16T18:25:35.182Z,37.25
2022-11-16T18:27:08.381Z,37.13
2022-11-16T18:28:41.853Z,36.70
2022-11-16T18:30:15.922Z,32.88
2022-11-16T18:31:49.225Z,31.77
2022-11-16T18:33:24.337Z,31.42
2022-11-16T18:35:00.998Z,28.73
2022-11-16T18:36:34.260Z,28.70
2022-11-16T18:38:12.909Z,26.90
2022-11-16T18:39:47.524Z,29.15
2022-11-16T18:41:22.026Z,32.60
2022-11-16T18:42:55.398Z,34.20
2022-11-16T18:44:28.640Z,30.23
2022-11-16T18:46:02.060Z,31.40
2022-11-16T18:47:35.466Z,29.02
2022-11-16T18:49:08.833Z,33.03
2022-11-16T18:50:41.981Z,26.63
2022-11-16T18:52:15.165Z,31.27
2022-11-16T18:53:48.589Z,65.28
2022-11-16T18:55:23.272Z,74.40
2022-11-16T18:56:56.621Z,64.43
2022-11-16T19:00:23.121Z,52.42
2022-11-16T19:01:56.501Z,53.47
2022-11-16T19:03:29.880Z,48.05
2022-11-16T19:05:03.089Z,47.50
2022-11-16T19:06:36.317Z,45.70
2022-11-16T19:08:09.880Z,44.72
2022-11-16T19:09:43.056Z,43.67
2022-11-16T19:11:18.218Z,38.97
2022-11-16T19:12:51.429Z,52.60
2022-11-16T19:14:24.707Z,56.83
2022-11-16T19:15:57.893Z,58.42
2022-11-16T19:17:31.113Z,51.50
2022-11-16T19:19:05.135Z,45.42
2022-11-16T19:20:38.659Z,38.83
2022-11-16T19:22:11.807Z,32.65
2022-11-16T19:23:47.157Z,36.03
2022-11-16T19:25:20.510Z,35.22
2022-11-16T19:26:55.217Z,34.67
2022-11-16T19:28:28.364Z,34.50
2022-11-16T19:30:01.670Z,27.50
2022-11-16T19:31:34.840Z,29.50
2022-11-16T19:33:08.169Z,34.63
2022-11-16T19:34:41.365Z,53.78
2022-11-16T19:36:16.846Z,58.88
2022-11-16T19:37:50.108Z,50.40
2022-11-16T19:39:23.412Z,38.55
2022-11-16T19:40:56.657Z,43.92
2022-11-16T19:42:31.364Z,71.13
2022-11-16T19:44:04.559Z,71.60
2022-11-16T19:45:37.831Z,56.58
2022-11-16T19:47:10.978Z,50.17
2022-11-16T19:48:44.624Z,47.63
2022-11-16T19:50:18.149Z,68.82
2022-11-16T19:51:51.471Z,57.38
2022-11-16T19:53:23.668Z,37.85
2022-11-16T19:54:56.935Z,34.38
2022-11-16T19:56:30.587Z,38.05
2022-11-16T19:58:06.483Z,41.28
2022-11-16T19:59:39.871Z,36.03
2022-11-16T20:01:15.841Z,51.97
2022-11-16T20:02:49.007Z,50.97
2022-11-16T20:04:22.379Z,67.95
2022-11-16T20:06:04.212Z,61.28
2022-11-16T20:07:38.968Z,52.88
2022-11-16T20:09:13.027Z,52.42
2022-11-16T20:10:46.609Z,53.28
2022-11-16T20:12:19.805Z,52.72
2022-11-16T20:13:56.514Z,63.35
2022-11-16T20:15:29.994Z,54.22
2022-11-16T20:17:03.375Z,57.55
2022-11-16T20:18:36.668Z,31.77
2022-11-16T20:20:11.082Z,31.25
2022-11-16T20:21:44.864Z,38.30
2022-11-16T20:23:19.532Z,49.83
2022-11-16T20:24:54.709Z,47.65
2022-11-16T20:26:29.913Z,41.72
2022-11-16T20:28:03.098Z,48.55
2022-11-16T20:29:37.839Z,46.85
2022-11-16T20:31:13.400Z,65.50
2022-11-16T20:32:46.654Z,42.60
2022-11-16T20:34:22.042Z,46.75
2022-11-16T20:36:01.576Z,40.08
2022-11-16T20:37:34.745Z,58.35
2022-11-16T20:39:07.990Z,79.85
2022-11-16T20:40:41.138Z,72.45
2022-11-16T20:42:14.754Z,49.00
2022-11-16T20:43:50.834Z,47.58
2022-11-16T20:45:25.425Z,71.20
2022-11-16T20:46:58.635Z,63.50
2022-11-16T20:48:32.036Z,44.60
2022-11-16T20:50:05.815Z,51.30
2022-11-16T20:51:39.016Z,50.58
2022-11-16T20:53:12.130Z,59.53
2022-11-16T20:54:45.421Z,61.90
2022-11-16T20:56:20.220Z,51.33
2022-11-16T20:57:53.435Z,45.65
2022-11-16T20:59:26.780Z,54.78
2022-11-16T21:01:02.845Z,51.97
2022-11-16T21:02:36.015Z,46.53
2022-11-16T21:04:10.888Z,35.08
2022-11-16T21:05:45.307Z,39.05
2022-11-16T21:07:19.646Z,51.28
2022-11-16T21:08:53.180Z,62.08
2022-11-16T21:10:26.525Z,34.17
2022-11-16T21:12:17.169Z,39.25
2022-11-16T21:14:07.790Z,35.95
2022-11-16T21:15:40.907Z,39.30
2022-11-16T21:17:15.460Z,40.72
2022-11-16T21:18:48.579Z,49.70
2022-11-16T21:20:28.998Z,55.03